Flight Track Log - Related Links

Times and Time Zones

All times are in EDT time to prevent confusion due to time zone crossing. See the UAL5900 flight status page for this flight to view local times or setup timezone preferences in your user account.

Time Position Orientation Groundspeed Altitude Reporting Facility
EDT Latitude Longitude Course Direction KTS MPH feet Rate Location/Type
Mon 06:38:42 PM 41.9333 -87.9000 180° South 157 181 2,100  Level Chicago TRACON
Mon 06:39:42 PM 41.8833 -87.9000 180° South 234 269 3,500 2,220 Climbing Chicago TRACON
Mon 06:40:49 PM 41.8000 -87.8931 176° South 246 283 6,800 2,558 Climbing Chicago Center
Mon 06:41:51 PM 41.7344 -87.8897 178° South 239 275 9,000 1,984 Climbing Chicago Center
Mon 06:42:53 PM 41.6650 -87.8881 179° South 249 287 10,900 1,790 Climbing Chicago Center
Mon 06:43:55 PM 41.5903 -87.8842 178° South 264 304 12,700 1,707 Climbing Chicago Center
Mon 06:44:56 PM 41.5128 -87.8728 174° South 279 321 14,400 1,561 Climbing Chicago Center
Mon 06:45:58 PM 41.4308 -87.8589 173° South 291 335 15,900 1,452 Climbing Chicago Center
Mon 06:47:00 PM 41.3450 -87.8464 174° South 305 351 17,400 1,597 Climbing Chicago Center
Mon 06:48:02 PM 41.2386 -87.8258 172° South 320 368 19,200 1,452 Climbing Chicago Center
Mon 06:49:04 PM 41.1497 -87.7689 154° Southeast 352 405 20,400 1,161 Climbing Chicago Center
Mon 06:50:06 PM 41.0614 -87.6947 148° Southeast 372 428 21,600 1,452 Climbing Chicago Center
Mon 06:51:08 PM 40.9719 -87.6194 148° Southeast 382 440 23,400 1,839 Climbing Chicago Center
Mon 06:52:10 PM 40.8817 -87.5875 165° South 348 400 25,400 1,887 Climbing Chicago Center
Mon 06:53:12 PM 40.7917 -87.5789 176° South 325 374 27,300 1,610 Climbing Chicago Center
Mon 06:54:13 PM 40.6872 -87.5678 175° South 316 364 28,700 1,268 Climbing Chicago Center
Mon 06:55:15 PM 40.5978 -87.5592 176° South 321 369 29,900 1,161 Climbing Chicago Center
Mon 06:56:17 PM 40.5069 -87.5511 176° South 327 376 31,100 1,113 Climbing Chicago Center
Mon 06:57:19 PM 40.4158 -87.5417 175° South 330 380 32,200 1,016 Climbing Chicago Center
Mon 06:58:21 PM 40.3233 -87.5331 176° South 333 383 33,200 968 Climbing Chicago Center
Mon 06:59:23 PM 40.2289 -87.5244 176° South 337 388 34,200 871 Climbing Chicago Center
Mon 07:00:25 PM 40.1150 -87.5150 176° South 343 395 35,000 505 Climbing Chicago Center
Mon 07:00:58 PM 40.0769 -87.5081 172° South 343 395 35,000  Level Indianapolis Center
Mon 07:01:59 PM 39.9508 -87.4972 176° South 371 427 35,000  Level Indianapolis Center
Mon 07:03:01 PM 39.8383 -87.4853 175° South 394 453 35,000  Level Indianapolis Center
Mon 07:04:03 PM 39.7228 -87.4758 176° South 408 470 35,000  Level Indianapolis Center
Mon 07:05:05 PM 39.6033 -87.4642 176° South 425 489 35,000  Level Indianapolis Center
Mon 07:06:06 PM 39.4842 -87.4533 176° South 426 490 35,000 -146 Level Indianapolis Center
Mon 07:07:08 PM 39.3672 -87.4408 175° South 422 486 34,700 -581 Descending Indianapolis Center
Mon 07:08:10 PM 39.2514 -87.4306 176° South 417 480 33,800 -823 Descending Indianapolis Center
Mon 07:09:12 PM 39.1350 -87.4194 176° South 418 481 33,000 -390 Descending Indianapolis Center
Mon 07:10:13 PM 38.9928 -87.4058 176° South 425 489 33,000  Level Indianapolis Center
Mon 07:11:15 PM 38.8725 -87.3953 176° South 431 496 33,000  Level Indianapolis Center
Mon 07:12:17 PM 38.7511 -87.3842 176° South 435 501 33,000  Level Indianapolis Center
Mon 07:13:19 PM 38.6300 -87.3728 176° South 437 503 33,000  Level Indianapolis Center
Mon 07:14:20 PM 38.5103 -87.3614 176° South 433 498 33,000  Level Indianapolis Center
Mon 07:15:22 PM 38.3917 -87.3508 176° South 430 495 33,000  Level Indianapolis Center
Mon 07:16:24 PM 38.2733 -87.3419 177° South 430 495 33,000  Level Indianapolis Center
Mon 07:17:25 PM 38.1322 -87.3286 176° South 428 493 33,000 -341 Level Indianapolis Center
Mon 07:18:27 PM 38.0136 -87.3167 175° South 428 493 32,300 -823 Descending Indianapolis Center
Mon 07:19:29 PM 37.8939 -87.3050 176° South 430 495 31,300 -1,306 Descending Indianapolis Center
Mon 07:20:31 PM 37.7611 -87.2942 176° South 432 497 29,600 -1,805 Descending Indianapolis Center
Mon 07:21:32 PM 37.6400 -87.2831 176° South 432 497 27,600 -1,907 Descending Indianapolis Center
Mon 07:22:18 PM 37.5561 -87.2756 176° South 441 507 26,200 -1,925 Descending Memphis Center
Mon 07:23:18 PM 37.4350 -87.2644 176° South 448 516 24,200 -1,600 Descending Memphis Center
Mon 07:24:18 PM 37.3117 -87.2433 172° South 448 516 23,000 -1,096 Descending Memphis Center
Mon 07:25:02 PM 37.2108 -87.2186 169° South 437 503 22,300 -800 Descending Memphis Center
Mon 07:25:18 PM 37.1836 -87.2067 161° South 442 509 22,200 -1,475 Descending Memphis Center
Mon 07:26:03 PM 37.1017 -87.1839 167° South 425 489 20,800 -1,900 Descending Memphis Center
Mon 07:26:18 PM 37.0681 -87.1722 165° South 428 493 20,300 -2,200 Descending Memphis Center
Mon 07:27:03 PM 36.9819 -87.1497 168° South 415 478 18,600 -2,100 Descending Memphis Center
Mon 07:27:18 PM 36.9589 -87.1403 162° South 414 476 18,200 -2,080 Descending Memphis Center
Mon 07:28:18 PM 36.8497 -87.1083 167° South 408 470 16,000 -2,150 Descending Memphis Center
Mon 07:29:18 PM 36.7483 -87.0581 158° South 408 470 13,900 -2,400 Descending Memphis Center
Mon 07:30:18 PM 36.6550 -86.9997 153° Southeast 384 442 11,200 -1,900 Descending Memphis Center
Mon 07:31:18 PM 36.5767 -86.9514 154° Southeast 342 394 10,100 -1,350 Descending Memphis Center
Mon 07:32:18 PM 36.5044 -86.9081 154° Southeast 301 346 8,500 -1,650 Descending Memphis Center
Mon 07:33:18 PM 36.4406 -86.8514 144° Southeast 288 331 6,800 -1,600 Descending Memphis Center
Mon 07:34:18 PM 36.3908 -86.7917 136° Southeast 282 325 5,300 -1,550 Descending Memphis Center
Mon 07:35:18 PM 36.3392 -86.7319 137° Southeast 272 313 3,700 -1,150 Descending Memphis Center
Mon 07:36:18 PM 36.2872 -86.6700 136° Southeast 247 284 3,000 -650 Descending Memphis Center
Mon 07:37:18 PM 36.2386 -86.6517 163° South 209 241 2,400 -650 Descending Memphis Center
Mon 07:38:18 PM 36.1908 -86.6589 187° South 185 213 1,700 -700 Descending Memphis Center
Mon 07:39:18 PM 36.1539 -86.6708 195° South 155 178 1,000 -500 Descending Memphis Center
Mon 07:40:18 PM 36.1167 -86.6853 197° South 144 166 700 -300 Descending Memphis Center
Mon 07:42:00 PM 36.1167 -86.6667 90° East  Level FlightAware Approximate

Login

Don't have an account? Register now (free) for customized features, flight alerts, and more!